sensor_id;sensor_type;location;lat;lon;timestamp;P1;durP1;ratioP1;P2;durP2;ratioP2
3433;SDS011;1730;41.932;25.548;2023-09-30T00:00:44;11.67;;;6.67;;
3433;SDS011;1730;41.932;25.548;2023-09-30T00:03:10;12.57;;;6.40;;
3433;SDS011;1730;41.932;25.548;2023-09-30T00:05:36;15.57;;;7.00;;
3433;SDS011;1730;41.932;25.548;2023-09-30T00:08:02;18.27;;;7.27;;
3433;SDS011;1730;41.932;25.548;2023-09-30T00:10:28;12.33;;;6.23;;
3433;SDS011;1730;41.932;25.548;2023-09-30T00:12:55;16.20;;;6.10;;
3433;SDS011;1730;41.932;25.548;2023-09-30T00:15:24;16.53;;;7.17;;
3433;SDS011;1730;41.932;25.548;2023-09-30T00:17:50;8.93;;;6.10;;
3433;SDS011;1730;41.932;25.548;2023-09-30T00:20:15;16.23;;;6.90;;
3433;SDS011;1730;41.932;25.548;2023-09-30T00:22:41;8.17;;;6.17;;
3433;SDS011;1730;41.932;25.548;2023-09-30T00:25:08;11.70;;;6.20;;
3433;SDS011;1730;41.932;25.548;2023-09-30T00:27:33;14.27;;;7.00;;
3433;SDS011;1730;41.932;25.548;2023-09-30T00:29:59;9.03;;;5.90;;
3433;SDS011;1730;41.932;25.548;2023-09-30T00:32:24;15.37;;;6.60;;
3433;SDS011;1730;41.932;25.548;2023-09-30T00:34:50;12.23;;;6.13;;
3433;SDS011;1730;41.932;25.548;2023-09-30T00:37:17;9.40;;;6.07;;
3433;SDS011;1730;41.932;25.548;2023-09-30T00:39:43;10.90;;;6.83;;
3433;SDS011;1730;41.932;25.548;2023-09-30T00:42:10;10.10;;;6.33;;
3433;SDS011;1730;41.932;25.548;2023-09-30T00:44:35;17.90;;;5.80;;
3433;SDS011;1730;41.932;25.548;2023-09-30T00:47:01;17.13;;;7.03;;
3433;SDS011;1730;41.932;25.548;2023-09-30T00:49:27;13.60;;;5.97;;
3433;SDS011;1730;41.932;25.548;2023-09-30T00:51:54;17.17;;;6.30;;
3433;SDS011;1730;41.932;25.548;2023-09-30T00:54:21;14.40;;;6.40;;
3433;SDS011;1730;41.932;25.548;2023-09-30T00:56:49;16.67;;;6.90;;
3433;SDS011;1730;41.932;25.548;2023-09-30T00:59:18;11.03;;;5.93;;
3433;SDS011;1730;41.932;25.548;2023-09-30T01:01:45;6.50;;;5.80;;
3433;SDS011;1730;41.932;25.548;2023-09-30T01:04:13;18.73;;;6.77;;
3433;SDS011;1730;41.932;25.548;2023-09-30T01:06:39;13.33;;;6.57;;
3433;SDS011;1730;41.932;25.548;2023-09-30T01:09:07;12.17;;;5.73;;
3433;SDS011;1730;41.932;25.548;2023-09-30T01:11:34;20.53;;;6.50;;
3433;SDS011;1730;41.932;25.548;2023-09-30T01:14:00;13.93;;;7.70;;
3433;SDS011;1730;41.932;25.548;2023-09-30T01:16:27;11.57;;;6.57;;
3433;SDS011;1730;41.932;25.548;2023-09-30T01:18:53;14.50;;;7.20;;
3433;SDS011;1730;41.932;25.548;2023-09-30T01:21:19;10.33;;;6.80;;
3433;SDS011;1730;41.932;25.548;2023-09-30T01:23:45;14.37;;;6.47;;
3433;SDS011;1730;41.932;25.548;2023-09-30T01:26:13;14.00;;;6.50;;
3433;SDS011;1730;41.932;25.548;2023-09-30T01:28:40;17.17;;;6.43;;
3433;SDS011;1730;41.932;25.548;2023-09-30T01:31:06;11.73;;;6.57;;
3433;SDS011;1730;41.932;25.548;2023-09-30T01:33:32;10.10;;;6.70;;
3433;SDS011;1730;41.932;25.548;2023-09-30T01:35:58;16.27;;;6.87;;
3433;SDS011;1730;41.932;25.548;2023-09-30T01:38:25;14.53;;;6.47;;
3433;SDS011;1730;41.932;25.548;2023-09-30T01:40:51;13.23;;;5.70;;
3433;SDS011;1730;41.932;25.548;2023-09-30T01:43:17;12.03;;;5.90;;
3433;SDS011;1730;41.932;25.548;2023-09-30T01:45:43;11.73;;;6.37;;
3433;SDS011;1730;41.932;25.548;2023-09-30T01:48:09;7.87;;;6.30;;
3433;SDS011;1730;41.932;25.548;2023-09-30T01:50:39;11.20;;;6.20;;
3433;SDS011;1730;41.932;25.548;2023-09-30T01:53:05;10.67;;;6.27;;
3433;SDS011;1730;41.932;25.548;2023-09-30T01:55:32;14.43;;;6.40;;
3433;SDS011;1730;41.932;25.548;2023-09-30T01:57:59;14.23;;;6.80;;
3433;SDS011;1730;41.932;25.548;2023-09-30T02:00:24;8.80;;;7.00;;
3433;SDS011;1730;41.932;25.548;2023-09-30T02:02:50;18.83;;;6.40;;
3433;SDS011;1730;41.932;25.548;2023-09-30T02:05:16;20.23;;;6.63;;
3433;SDS011;1730;41.932;25.548;2023-09-30T02:07:41;11.77;;;6.77;;
3433;SDS011;1730;41.932;25.548;2023-09-30T02:10:07;15.10;;;6.70;;
3433;SDS011;1730;41.932;25.548;2023-09-30T02:12:33;15.90;;;7.27;;
3433;SDS011;1730;41.932;25.548;2023-09-30T02:14:58;17.40;;;8.00;;
3433;SDS011;1730;41.932;25.548;2023-09-30T02:17:25;15.23;;;7.20;;
3433;SDS011;1730;41.932;25.548;2023-09-30T02:19:51;15.27;;;7.87;;
3433;SDS011;1730;41.932;25.548;2023-09-30T02:22:18;12.93;;;7.47;;
3433;SDS011;1730;41.932;25.548;2023-09-30T02:24:44;14.57;;;7.77;;
3433;SDS011;1730;41.932;25.548;2023-09-30T02:27:20;12.10;;;6.90;;
3433;SDS011;1730;41.932;25.548;2023-09-30T02:29:45;15.67;;;7.23;;
3433;SDS011;1730;41.932;25.548;2023-09-30T02:32:11;16.10;;;8.13;;
3433;SDS011;1730;41.932;25.548;2023-09-30T02:34:40;15.27;;;7.10;;
3433;SDS011;1730;41.932;25.548;2023-09-30T02:37:07;19.93;;;7.40;;
3433;SDS011;1730;41.932;25.548;2023-09-30T02:39:33;7.03;;;6.33;;
3433;SDS011;1730;41.932;25.548;2023-09-30T02:41:59;20.60;;;6.53;;
3433;SDS011;1730;41.932;25.548;2023-09-30T02:44:24;10.80;;;6.80;;
3433;SDS011;1730;41.932;25.548;2023-09-30T02:46:50;14.73;;;6.30;;
3433;SDS011;1730;41.932;25.548;2023-09-30T02:49:16;12.10;;;6.40;;
3433;SDS011;1730;41.932;25.548;2023-09-30T02:51:41;25.33;;;7.00;;
3433;SDS011;1730;41.932;25.548;2023-09-30T02:54:07;10.47;;;6.93;;
3433;SDS011;1730;41.932;25.548;2023-09-30T02:56:33;14.40;;;6.10;;
3433;SDS011;1730;41.932;25.548;2023-09-30T02:58:59;15.23;;;6.37;;
3433;SDS011;1730;41.932;25.548;2023-09-30T03:01:25;9.23;;;6.27;;
3433;SDS011;1730;41.932;25.548;2023-09-30T03:03:53;15.27;;;6.20;;
3433;SDS011;1730;41.932;25.548;2023-09-30T03:06:19;8.50;;;6.33;;
3433;SDS011;1730;41.932;25.548;2023-09-30T03:08:44;10.33;;;6.00;;
3433;SDS011;1730;41.932;25.548;2023-09-30T03:11:11;15.87;;;5.60;;
3433;SDS011;1730;41.932;25.548;2023-09-30T03:13:38;9.40;;;6.20;;
3433;SDS011;1730;41.932;25.548;2023-09-30T03:16:07;10.43;;;6.30;;
3433;SDS011;1730;41.932;25.548;2023-09-30T03:18:34;16.30;;;6.03;;
3433;SDS011;1730;41.932;25.548;2023-09-30T03:21:00;11.37;;;5.90;;
3433;SDS011;1730;41.932;25.548;2023-09-30T03:23:27;15.47;;;5.53;;
3433;SDS011;1730;41.932;25.548;2023-09-30T03:25:59;18.90;;;6.00;;
3433;SDS011;1730;41.932;25.548;2023-09-30T03:28:27;9.53;;;6.67;;
3433;SDS011;1730;41.932;25.548;2023-09-30T03:30:55;9.43;;;5.73;;
3433;SDS011;1730;41.932;25.548;2023-09-30T03:33:21;7.27;;;5.60;;
3433;SDS011;1730;41.932;25.548;2023-09-30T03:35:47;12.73;;;6.30;;
3433;SDS011;1730;41.932;25.548;2023-09-30T03:38:12;9.40;;;5.73;;
3433;SDS011;1730;41.932;25.548;2023-09-30T03:40:39;19.57;;;5.57;;
3433;SDS011;1730;41.932;25.548;2023-09-30T03:43:05;15.10;;;6.40;;
3433;SDS011;1730;41.932;25.548;2023-09-30T03:45:31;6.53;;;5.90;;
3433;SDS011;1730;41.932;25.548;2023-09-30T03:47:58;6.67;;;6.00;;
3433;SDS011;1730;41.932;25.548;2023-09-30T03:50:24;18.37;;;6.07;;
3433;SDS011;1730;41.932;25.548;2023-09-30T03:52:50;13.73;;;6.47;;
3433;SDS011;1730;41.932;25.548;2023-09-30T03:55:16;10.17;;;5.90;;
3433;SDS011;1730;41.932;25.548;2023-09-30T03:57:43;11.57;;;5.67;;
3433;SDS011;1730;41.932;25.548;2023-09-30T04:00:12;9.97;;;6.20;;
3433;SDS011;1730;41.932;25.548;2023-09-30T04:02:43;15.40;;;6.00;;
3433;SDS011;1730;41.932;25.548;2023-09-30T04:05:13;6.57;;;5.93;;
3433;SDS011;1730;41.932;25.548;2023-09-30T04:07:39;13.23;;;6.20;;
3433;SDS011;1730;41.932;25.548;2023-09-30T04:10:07;10.10;;;6.57;;
3433;SDS011;1730;41.932;25.548;2023-09-30T04:12:33;6.57;;;5.80;;
3433;SDS011;1730;41.932;25.548;2023-09-30T04:14:59;6.63;;;5.60;;
3433;SDS011;1730;41.932;25.548;2023-09-30T04:17:25;9.23;;;5.77;;
3433;SDS011;1730;41.932;25.548;2023-09-30T04:19:52;7.80;;;5.93;;
3433;SDS011;1730;41.932;25.548;2023-09-30T04:22:18;15.23;;;6.10;;
3433;SDS011;1730;41.932;25.548;2023-09-30T04:24:45;15.57;;;6.27;;
3433;SDS011;1730;41.932;25.548;2023-09-30T04:27:15;9.90;;;5.90;;
3433;SDS011;1730;41.932;25.548;2023-09-30T04:29:41;16.40;;;6.47;;
3433;SDS011;1730;41.932;25.548;2023-09-30T04:32:07;11.10;;;6.10;;
3433;SDS011;1730;41.932;25.548;2023-09-30T04:34:36;16.70;;;6.47;;
3433;SDS011;1730;41.932;25.548;2023-09-30T04:37:01;13.27;;;6.27;;
3433;SDS011;1730;41.932;25.548;2023-09-30T04:39:58;11.63;;;6.17;;
3433;SDS011;1730;41.932;25.548;2023-09-30T04:42:23;12.43;;;6.67;;
3433;SDS011;1730;41.932;25.548;2023-09-30T04:44:50;10.00;;;6.03;;
3433;SDS011;1730;41.932;25.548;2023-09-30T04:47:17;14.03;;;6.20;;
3433;SDS011;1730;41.932;25.548;2023-09-30T04:49:45;7.70;;;6.37;;
3433;SDS011;1730;41.932;25.548;2023-09-30T04:52:10;11.33;;;6.67;;
3433;SDS011;1730;41.932;25.548;2023-09-30T04:54:37;8.77;;;6.30;;
3433;SDS011;1730;41.932;25.548;2023-09-30T04:57:03;7.40;;;6.30;;
3433;SDS011;1730;41.932;25.548;2023-09-30T04:59:28;10.40;;;5.67;;
3433;SDS011;1730;41.932;25.548;2023-09-30T05:01:54;12.60;;;5.90;;
3433;SDS011;1730;41.932;25.548;2023-09-30T05:04:21;21.50;;;6.30;;
3433;SDS011;1730;41.932;25.548;2023-09-30T05:06:49;10.97;;;6.60;;
3433;SDS011;1730;41.932;25.548;2023-09-30T05:09:20;9.73;;;5.87;;
3433;SDS011;1730;41.932;25.548;2023-09-30T05:11:46;12.10;;;5.70;;
3433;SDS011;1730;41.932;25.548;2023-09-30T05:14:11;14.60;;;5.40;;
3433;SDS011;1730;41.932;25.548;2023-09-30T05:16:38;8.13;;;5.60;;
3433;SDS011;1730;41.932;25.548;2023-09-30T05:19:03;15.43;;;6.07;;
3433;SDS011;1730;41.932;25.548;2023-09-30T05:21:29;25.40;;;6.00;;
3433;SDS011;1730;41.932;25.548;2023-09-30T05:23:55;12.60;;;5.10;;
3433;SDS011;1730;41.932;25.548;2023-09-30T05:26:21;7.47;;;5.53;;
3433;SDS011;1730;41.932;25.548;2023-09-30T05:28:48;7.83;;;5.43;;
3433;SDS011;1730;41.932;25.548;2023-09-30T05:31:15;14.83;;;5.70;;
3433;SDS011;1730;41.932;25.548;2023-09-30T05:33:40;17.23;;;6.40;;
3433;SDS011;1730;41.932;25.548;2023-09-30T05:36:06;10.57;;;6.13;;
3433;SDS011;1730;41.932;25.548;2023-09-30T05:38:34;11.53;;;5.60;;
3433;SDS011;1730;41.932;25.548;2023-09-30T05:41:00;11.77;;;6.10;;
3433;SDS011;1730;41.932;25.548;2023-09-30T05:43:26;24.30;;;7.20;;
3433;SDS011;1730;41.932;25.548;2023-09-30T05:45:52;16.10;;;5.83;;
3433;SDS011;1730;41.932;25.548;2023-09-30T05:48:20;13.57;;;5.70;;
3433;SDS011;1730;41.932;25.548;2023-09-30T05:50:46;6.10;;;5.47;;
3433;SDS011;1730;41.932;25.548;2023-09-30T05:53:16;15.30;;;6.27;;
3433;SDS011;1730;41.932;25.548;2023-09-30T05:55:47;8.53;;;5.80;;
3433;SDS011;1730;41.932;25.548;2023-09-30T05:58:14;13.90;;;6.37;;
3433;SDS011;1730;41.932;25.548;2023-09-30T06:00:47;10.57;;;5.90;;
3433;SDS011;1730;41.932;25.548;2023-09-30T06:06:13;8.10;;;5.30;;
3433;SDS011;1730;41.932;25.548;2023-09-30T06:08:41;13.50;;;5.33;;
3433;SDS011;1730;41.932;25.548;2023-09-30T06:11:20;6.57;;;5.53;;
3433;SDS011;1730;41.932;25.548;2023-09-30T06:13:51;17.37;;;5.30;;
3433;SDS011;1730;41.932;25.548;2023-09-30T06:16:18;12.10;;;4.80;;
3433;SDS011;1730;41.932;25.548;2023-09-30T06:18:45;8.80;;;5.87;;
3433;SDS011;1730;41.932;25.548;2023-09-30T06:21:11;12.03;;;5.93;;
3433;SDS011;1730;41.932;25.548;2023-09-30T06:23:40;7.50;;;5.00;;
3433;SDS011;1730;41.932;25.548;2023-09-30T06:26:06;24.17;;;6.80;;
3433;SDS011;1730;41.932;25.548;2023-09-30T06:28:32;17.87;;;5.97;;
3433;SDS011;1730;41.932;25.548;2023-09-30T06:31:05;9.93;;;6.13;;
3433;SDS011;1730;41.932;25.548;2023-09-30T06:33:34;9.13;;;6.07;;
3433;SDS011;1730;41.932;25.548;2023-09-30T06:36:01;13.10;;;6.60;;
3433;SDS011;1730;41.932;25.548;2023-09-30T06:38:46;10.03;;;5.53;;
3433;SDS011;1730;41.932;25.548;2023-09-30T06:41:17;14.80;;;8.00;;
3433;SDS011;1730;41.932;25.548;2023-09-30T06:43:43;11.50;;;6.93;;
3433;SDS011;1730;41.932;25.548;2023-09-30T06:46:10;11.80;;;7.30;;
3433;SDS011;1730;41.932;25.548;2023-09-30T06:48:38;14.13;;;6.67;;
3433;SDS011;1730;41.932;25.548;2023-09-30T06:51:05;12.90;;;7.27;;
3433;SDS011;1730;41.932;25.548;2023-09-30T06:53:31;13.10;;;6.43;;
3433;SDS011;1730;41.932;25.548;2023-09-30T06:55:57;19.27;;;7.23;;
3433;SDS011;1730;41.932;25.548;2023-09-30T06:58:24;20.70;;;6.70;;
3433;SDS011;1730;41.932;25.548;2023-09-30T07:00:50;10.63;;;8.07;;
3433;SDS011;1730;41.932;25.548;2023-09-30T07:03:19;15.30;;;7.17;;
3433;SDS011;1730;41.932;25.548;2023-09-30T07:05:46;12.37;;;7.07;;
3433;SDS011;1730;41.932;25.548;2023-09-30T07:08:18;15.77;;;8.20;;
3433;SDS011;1730;41.932;25.548;2023-09-30T07:10:47;12.50;;;8.70;;
3433;SDS011;1730;41.932;25.548;2023-09-30T07:13:15;15.00;;;7.83;;
3433;SDS011;1730;41.932;25.548;2023-09-30T07:15:44;15.77;;;8.47;;
3433;SDS011;1730;41.932;25.548;2023-09-30T07:18:10;10.20;;;7.30;;
3433;SDS011;1730;41.932;25.548;2023-09-30T07:20:37;9.53;;;6.93;;
3433;SDS011;1730;41.932;25.548;2023-09-30T07:23:03;10.70;;;7.10;;
3433;SDS011;1730;41.932;25.548;2023-09-30T07:25:30;11.00;;;7.83;;
3433;SDS011;1730;41.932;25.548;2023-09-30T07:28:02;8.80;;;7.87;;
3433;SDS011;1730;41.932;25.548;2023-09-30T07:30:32;10.40;;;8.00;;
3433;SDS011;1730;41.932;25.548;2023-09-30T07:32:58;21.60;;;8.33;;
3433;SDS011;1730;41.932;25.548;2023-09-30T07:35:24;18.00;;;8.53;;
3433;SDS011;1730;41.932;25.548;2023-09-30T07:37:50;12.57;;;7.73;;
3433;SDS011;1730;41.932;25.548;2023-09-30T07:40:18;18.70;;;7.27;;
3433;SDS011;1730;41.932;25.548;2023-09-30T07:42:46;9.60;;;7.47;;
3433;SDS011;1730;41.932;25.548;2023-09-30T07:45:12;32.13;;;9.00;;
3433;SDS011;1730;41.932;25.548;2023-09-30T07:47:43;19.27;;;8.17;;
3433;SDS011;1730;41.932;25.548;2023-09-30T07:50:12;14.10;;;7.50;;
3433;SDS011;1730;41.932;25.548;2023-09-30T07:52:45;17.30;;;9.07;;
3433;SDS011;1730;41.932;25.548;2023-09-30T07:55:11;15.63;;;8.77;;
3433;SDS011;1730;41.932;25.548;2023-09-30T07:57:39;17.83;;;8.30;;
3433;SDS011;1730;41.932;25.548;2023-09-30T08:02:42;11.60;;;7.57;;
3433;SDS011;1730;41.932;25.548;2023-09-30T08:05:08;17.07;;;8.20;;
3433;SDS011;1730;41.932;25.548;2023-09-30T08:07:35;13.90;;;8.33;;
3433;SDS011;1730;41.932;25.548;2023-09-30T08:10:07;10.00;;;7.50;;
3433;SDS011;1730;41.932;25.548;2023-09-30T08:12:38;12.60;;;7.43;;
3433;SDS011;1730;41.932;25.548;2023-09-30T08:15:05;13.97;;;8.10;;
3433;SDS011;1730;41.932;25.548;2023-09-30T08:18:00;8.57;;;7.73;;
3433;SDS011;1730;41.932;25.548;2023-09-30T08:20:51;9.37;;;7.70;;
3433;SDS011;1730;41.932;25.548;2023-09-30T08:23:18;9.90;;;7.37;;
3433;SDS011;1730;41.932;25.548;2023-09-30T08:25:44;8.57;;;7.33;;
3433;SDS011;1730;41.932;25.548;2023-09-30T08:28:12;16.70;;;7.57;;
3433;SDS011;1730;41.932;25.548;2023-09-30T08:30:38;8.60;;;6.80;;
3433;SDS011;1730;41.932;25.548;2023-09-30T08:33:04;14.90;;;7.00;;
3433;SDS011;1730;41.932;25.548;2023-09-30T08:35:38;19.20;;;8.00;;
3433;SDS011;1730;41.932;25.548;2023-09-30T08:38:04;9.40;;;6.43;;
3433;SDS011;1730;41.932;25.548;2023-09-30T08:40:30;13.23;;;7.03;;
3433;SDS011;1730;41.932;25.548;2023-09-30T08:42:56;12.20;;;7.60;;
3433;SDS011;1730;41.932;25.548;2023-09-30T08:45:22;11.20;;;7.23;;
3433;SDS011;1730;41.932;25.548;2023-09-30T08:47:53;10.40;;;7.40;;
3433;SDS011;1730;41.932;25.548;2023-09-30T08:50:20;14.10;;;6.90;;
3433;SDS011;1730;41.932;25.548;2023-09-30T08:52:48;14.97;;;7.87;;
3433;SDS011;1730;41.932;25.548;2023-09-30T08:55:27;14.80;;;6.27;;
3433;SDS011;1730;41.932;25.548;2023-09-30T08:58:00;8.53;;;6.00;;
3433;SDS011;1730;41.932;25.548;2023-09-30T09:00:39;12.90;;;6.43;;
3433;SDS011;1730;41.932;25.548;2023-09-30T09:05:53;16.57;;;5.97;;
3433;SDS011;1730;41.932;25.548;2023-09-30T09:11:02;10.00;;;5.30;;
3433;SDS011;1730;41.932;25.548;2023-09-30T09:13:47;6.50;;;5.30;;
3433;SDS011;1730;41.932;25.548;2023-09-30T09:16:15;12.80;;;5.53;;
3433;SDS011;1730;41.932;25.548;2023-09-30T09:18:45;9.90;;;5.20;;
3433;SDS011;1730;41.932;25.548;2023-09-30T09:23:45;9.30;;;5.17;;
3433;SDS011;1730;41.932;25.548;2023-09-30T09:28:59;17.30;;;4.30;;
3433;SDS011;1730;41.932;25.548;2023-09-30T09:31:36;5.63;;;4.70;;
3433;SDS011;1730;41.932;25.548;2023-09-30T09:39:57;12.87;;;4.73;;
3433;SDS011;1730;41.932;25.548;2023-09-30T09:42:25;9.53;;;4.57;;
3433;SDS011;1730;41.932;25.548;2023-09-30T09:45:05;7.50;;;4.53;;
3433;SDS011;1730;41.932;25.548;2023-09-30T09:47:34;14.90;;;5.33;;
3433;SDS011;1730;41.932;25.548;2023-09-30T09:50:02;7.13;;;4.60;;
3433;SDS011;1730;41.932;25.548;2023-09-30T09:52:30;9.87;;;5.10;;
3433;SDS011;1730;41.932;25.548;2023-09-30T09:55:01;21.47;;;5.13;;
3433;SDS011;1730;41.932;25.548;2023-09-30T09:57:30;7.20;;;5.40;;
3433;SDS011;1730;41.932;25.548;2023-09-30T09:59:57;6.87;;;4.40;;
3433;SDS011;1730;41.932;25.548;2023-09-30T10:02:25;13.00;;;4.83;;
3433;SDS011;1730;41.932;25.548;2023-09-30T10:05:13;7.20;;;4.73;;
3433;SDS011;1730;41.932;25.548;2023-09-30T10:08:28;8.53;;;4.77;;
3433;SDS011;1730;41.932;25.548;2023-09-30T10:13:09;8.13;;;4.93;;
3433;SDS011;1730;41.932;25.548;2023-09-30T10:21:09;16.93;;;5.07;;
3433;SDS011;1730;41.932;25.548;2023-09-30T10:23:41;8.77;;;5.07;;
3433;SDS011;1730;41.932;25.548;2023-09-30T10:29:08;6.50;;;5.20;;
3433;SDS011;1730;41.932;25.548;2023-09-30T10:31:52;5.90;;;4.67;;
3433;SDS011;1730;41.932;25.548;2023-09-30T10:34:53;10.13;;;5.70;;
3433;SDS011;1730;41.932;25.548;2023-09-30T10:37:27;8.43;;;4.97;;
3433;SDS011;1730;41.932;25.548;2023-09-30T10:43:29;13.00;;;5.47;;
3433;SDS011;1730;41.932;25.548;2023-09-30T10:54:13;15.80;;;5.70;;
3433;SDS011;1730;41.932;25.548;2023-09-30T10:56:39;12.33;;;4.90;;
3433;SDS011;1730;41.932;25.548;2023-09-30T10:59:05;9.40;;;5.27;;
3433;SDS011;1730;41.932;25.548;2023-09-30T11:01:34;9.73;;;7.00;;
3433;SDS011;1730;41.932;25.548;2023-09-30T11:04:01;8.17;;;5.40;;
3433;SDS011;1730;41.932;25.548;2023-09-30T11:06:29;8.77;;;5.67;;
3433;SDS011;1730;41.932;25.548;2023-09-30T11:08:56;7.00;;;5.70;;
3433;SDS011;1730;41.932;25.548;2023-09-30T11:14:03;17.83;;;5.70;;
3433;SDS011;1730;41.932;25.548;2023-09-30T11:16:40;9.33;;;5.90;;
3433;SDS011;1730;41.932;25.548;2023-09-30T11:19:09;10.43;;;4.97;;
3433;SDS011;1730;41.932;25.548;2023-09-30T11:21:35;9.40;;;5.27;;
3433;SDS011;1730;41.932;25.548;2023-09-30T11:24:01;16.40;;;5.83;;
3433;SDS011;1730;41.932;25.548;2023-09-30T11:26:30;11.00;;;5.50;;
3433;SDS011;1730;41.932;25.548;2023-09-30T11:29:31;11.73;;;5.97;;
3433;SDS011;1730;41.932;25.548;2023-09-30T11:31:52;6.90;;;5.50;;
3433;SDS011;1730;41.932;25.548;2023-09-30T11:34:34;5.43;;;5.00;;
3433;SDS011;1730;41.932;25.548;2023-09-30T11:37:03;8.63;;;5.27;;
3433;SDS011;1730;41.932;25.548;2023-09-30T11:39:38;9.80;;;5.47;;
3433;SDS011;1730;41.932;25.548;2023-09-30T11:42:12;6.27;;;4.60;;
3433;SDS011;1730;41.932;25.548;2023-09-30T11:44:46;11.90;;;5.27;;
3433;SDS011;1730;41.932;25.548;2023-09-30T11:47:27;20.60;;;5.43;;
3433;SDS011;1730;41.932;25.548;2023-09-30T11:58:06;8.53;;;4.93;;
3433;SDS011;1730;41.932;25.548;2023-09-30T12:00:36;4.10;;;3.77;;
3433;SDS011;1730;41.932;25.548;2023-09-30T12:03:06;4.90;;;4.40;;
3433;SDS011;1730;41.932;25.548;2023-09-30T12:08:02;8.23;;;4.80;;
3433;SDS011;1730;41.932;25.548;2023-09-30T12:10:28;7.10;;;4.37;;
3433;SDS011;1730;41.932;25.548;2023-09-30T12:12:56;11.47;;;5.13;;
3433;SDS011;1730;41.932;25.548;2023-09-30T12:15:21;8.73;;;4.57;;
3433;SDS011;1730;41.932;25.548;2023-09-30T12:17:47;7.50;;;4.20;;
3433;SDS011;1730;41.932;25.548;2023-09-30T12:20:13;8.90;;;5.30;;
3433;SDS011;1730;41.932;25.548;2023-09-30T12:25:10;10.87;;;5.67;;
3433;SDS011;1730;41.932;25.548;2023-09-30T12:27:36;10.13;;;5.20;;
3433;SDS011;1730;41.932;25.548;2023-09-30T12:30:01;6.17;;;5.03;;
3433;SDS011;1730;41.932;25.548;2023-09-30T12:32:35;8.10;;;5.20;;
3433;SDS011;1730;41.932;25.548;2023-09-30T12:35:00;9.30;;;4.77;;
3433;SDS011;1730;41.932;25.548;2023-09-30T12:37:27;12.70;;;5.00;;
3433;SDS011;1730;41.932;25.548;2023-09-30T12:39:57;15.07;;;5.00;;
3433;SDS011;1730;41.932;25.548;2023-09-30T12:42:24;7.60;;;4.70;;
3433;SDS011;1730;41.932;25.548;2023-09-30T12:44:51;8.23;;;4.90;;
3433;SDS011;1730;41.932;25.548;2023-09-30T12:47:17;9.30;;;4.90;;
3433;SDS011;1730;41.932;25.548;2023-09-30T12:49:55;6.23;;;4.40;;
3433;SDS011;1730;41.932;25.548;2023-09-30T12:52:24;10.47;;;5.10;;
3433;SDS011;1730;41.932;25.548;2023-09-30T12:54:50;15.10;;;4.83;;
3433;SDS011;1730;41.932;25.548;2023-09-30T12:57:20;12.53;;;5.33;;
3433;SDS011;1730;41.932;25.548;2023-09-30T12:59:46;9.60;;;5.40;;
3433;SDS011;1730;41.932;25.548;2023-09-30T13:02:15;11.07;;;5.27;;
3433;SDS011;1730;41.932;25.548;2023-09-30T13:04:43;12.17;;;5.37;;
3433;SDS011;1730;41.932;25.548;2023-09-30T13:07:10;10.00;;;5.10;;
3433;SDS011;1730;41.932;25.548;2023-09-30T13:09:40;16.17;;;5.50;;
3433;SDS011;1730;41.932;25.548;2023-09-30T13:12:09;8.90;;;4.60;;
3433;SDS011;1730;41.932;25.548;2023-09-30T13:14:38;6.57;;;5.57;;
3433;SDS011;1730;41.932;25.548;2023-09-30T13:17:05;6.50;;;5.17;;
3433;SDS011;1730;41.932;25.548;2023-09-30T13:19:31;6.93;;;4.70;;
3433;SDS011;1730;41.932;25.548;2023-09-30T13:21:58;5.53;;;5.03;;
3433;SDS011;1730;41.932;25.548;2023-09-30T13:24:24;8.50;;;5.10;;
3433;SDS011;1730;41.932;25.548;2023-09-30T13:26:51;7.90;;;5.27;;
3433;SDS011;1730;41.932;25.548;2023-09-30T13:29:18;13.83;;;5.50;;
3433;SDS011;1730;41.932;25.548;2023-09-30T13:31:44;7.30;;;4.67;;
3433;SDS011;1730;41.932;25.548;2023-09-30T13:34:25;5.10;;;4.60;;
3433;SDS011;1730;41.932;25.548;2023-09-30T13:36:51;12.77;;;5.30;;
3433;SDS011;1730;41.932;25.548;2023-09-30T13:41:45;6.43;;;5.53;;
3433;SDS011;1730;41.932;25.548;2023-09-30T13:44:12;14.00;;;5.27;;
3433;SDS011;1730;41.932;25.548;2023-09-30T13:46:38;7.23;;;4.70;;
3433;SDS011;1730;41.932;25.548;2023-09-30T13:49:05;5.80;;;5.23;;
3433;SDS011;1730;41.932;25.548;2023-09-30T13:51:32;9.67;;;4.93;;
3433;SDS011;1730;41.932;25.548;2023-09-30T13:54:04;5.57;;;5.07;;
3433;SDS011;1730;41.932;25.548;2023-09-30T13:59:11;17.45;;;4.80;;
3433;SDS011;1730;41.932;25.548;2023-09-30T14:04:21;12.47;;;5.40;;
3433;SDS011;1730;41.932;25.548;2023-09-30T14:06:46;9.70;;;5.10;;
3433;SDS011;1730;41.932;25.548;2023-09-30T14:09:13;6.40;;;4.67;;
3433;SDS011;1730;41.932;25.548;2023-09-30T14:11:40;13.40;;;4.87;;
3433;SDS011;1730;41.932;25.548;2023-09-30T14:14:07;11.33;;;6.73;;
3433;SDS011;1730;41.932;25.548;2023-09-30T14:17:05;6.60;;;4.67;;
3433;SDS011;1730;41.932;25.548;2023-09-30T14:20:03;7.23;;;4.80;;
3433;SDS011;1730;41.932;25.548;2023-09-30T14:23:05;7.43;;;5.10;;
3433;SDS011;1730;41.932;25.548;2023-09-30T14:25:30;15.97;;;5.67;;
3433;SDS011;1730;41.932;25.548;2023-09-30T14:27:57;8.00;;;5.43;;
3433;SDS011;1730;41.932;25.548;2023-09-30T14:30:25;6.03;;;5.30;;
3433;SDS011;1730;41.932;25.548;2023-09-30T14:32:50;11.50;;;4.73;;
3433;SDS011;1730;41.932;25.548;2023-09-30T14:35:17;8.23;;;4.70;;
3433;SDS011;1730;41.932;25.548;2023-09-30T14:37:42;10.77;;;5.37;;
3433;SDS011;1730;41.932;25.548;2023-09-30T14:40:08;5.50;;;5.00;;
3433;SDS011;1730;41.932;25.548;2023-09-30T14:42:39;9.50;;;5.70;;
3433;SDS011;1730;41.932;25.548;2023-09-30T14:45:08;17.47;;;5.47;;
3433;SDS011;1730;41.932;25.548;2023-09-30T14:47:35;5.93;;;5.43;;
3433;SDS011;1730;41.932;25.548;2023-09-30T14:50:01;7.40;;;5.57;;
3433;SDS011;1730;41.932;25.548;2023-09-30T14:52:27;10.53;;;6.10;;
3433;SDS011;1730;41.932;25.548;2023-09-30T14:54:53;12.60;;;7.10;;
3433;SDS011;1730;41.932;25.548;2023-09-30T14:57:21;8.47;;;6.40;;
3433;SDS011;1730;41.932;25.548;2023-09-30T14:59:47;11.10;;;5.70;;
3433;SDS011;1730;41.932;25.548;2023-09-30T15:02:13;6.20;;;5.70;;
3433;SDS011;1730;41.932;25.548;2023-09-30T15:04:38;12.67;;;5.60;;
3433;SDS011;1730;41.932;25.548;2023-09-30T15:07:04;8.33;;;5.13;;
3433;SDS011;1730;41.932;25.548;2023-09-30T15:09:30;11.83;;;5.70;;
3433;SDS011;1730;41.932;25.548;2023-09-30T15:11:56;10.23;;;5.20;;
3433;SDS011;1730;41.932;25.548;2023-09-30T15:14:23;9.73;;;5.33;;
3433;SDS011;1730;41.932;25.548;2023-09-30T15:16:48;11.33;;;5.53;;
3433;SDS011;1730;41.932;25.548;2023-09-30T15:19:15;10.57;;;5.97;;
3433;SDS011;1730;41.932;25.548;2023-09-30T15:21:41;13.60;;;6.13;;
3433;SDS011;1730;41.932;25.548;2023-09-30T15:24:07;6.60;;;5.50;;
3433;SDS011;1730;41.932;25.548;2023-09-30T15:26:34;19.90;;;5.70;;
3433;SDS011;1730;41.932;25.548;2023-09-30T15:29:01;12.73;;;5.47;;
3433;SDS011;1730;41.932;25.548;2023-09-30T15:31:28;9.90;;;5.00;;
3433;SDS011;1730;41.932;25.548;2023-09-30T15:33:55;6.20;;;5.57;;
3433;SDS011;1730;41.932;25.548;2023-09-30T15:36:21;7.43;;;5.33;;
3433;SDS011;1730;41.932;25.548;2023-09-30T15:38:47;13.30;;;5.60;;
3433;SDS011;1730;41.932;25.548;2023-09-30T15:41:13;8.73;;;5.40;;
3433;SDS011;1730;41.932;25.548;2023-09-30T15:43:40;13.43;;;5.47;;
3433;SDS011;1730;41.932;25.548;2023-09-30T15:46:10;10.03;;;5.60;;
3433;SDS011;1730;41.932;25.548;2023-09-30T15:48:35;14.10;;;5.40;;
3433;SDS011;1730;41.932;25.548;2023-09-30T15:51:01;6.27;;;5.40;;
3433;SDS011;1730;41.932;25.548;2023-09-30T15:53:27;9.27;;;5.23;;
3433;SDS011;1730;41.932;25.548;2023-09-30T15:55:53;5.93;;;5.03;;
3433;SDS011;1730;41.932;25.548;2023-09-30T15:58:19;6.83;;;5.70;;
3433;SDS011;1730;41.932;25.548;2023-09-30T16:00:44;18.43;;;6.10;;
3433;SDS011;1730;41.932;25.548;2023-09-30T16:03:11;6.57;;;5.87;;
3433;SDS011;1730;41.932;25.548;2023-09-30T16:05:38;8.37;;;5.80;;
3433;SDS011;1730;41.932;25.548;2023-09-30T16:08:04;16.40;;;5.83;;